createdAt,value
2023-02-11T00:02:07.100Z,12.17
2023-02-11T00:07:09.070Z,12.63
2023-02-11T00:12:10.940Z,13.10
2023-02-11T00:17:14.194Z,13.20
2023-02-11T00:22:16.471Z,12.70
2023-02-11T00:27:18.803Z,11.97
2023-02-11T00:32:23.423Z,11.80
2023-02-11T00:37:25.458Z,11.60
2023-02-11T00:42:27.433Z,10.90
2023-02-11T00:47:30.984Z,11.37
2023-02-11T00:52:33.984Z,10.37
2023-02-11T00:57:36.142Z,10.07
2023-02-11T01:02:39.850Z,10.13
2023-02-11T01:07:42.309Z,10.63
2023-02-11T01:12:44.383Z,10.10
2023-02-11T01:17:47.866Z,11.07
2023-02-11T01:22:49.919Z,10.60
2023-02-11T01:27:51.996Z,7.67
2023-02-11T01:32:55.420Z,8.73
2023-02-11T01:37:57.501Z,7.57
2023-02-11T01:42:59.359Z,7.27
2023-02-11T01:48:03.056Z,7.17
2023-02-11T01:53:19.255Z,7.13
2023-02-11T01:58:21.393Z,7.67
2023-02-11T02:03:26.364Z,7.20
2023-02-11T02:08:33.578Z,7.93
2023-02-11T02:13:37.313Z,8.83
2023-02-11T02:18:51.331Z,8.80
2023-02-11T02:24:26.812Z,8.50
2023-02-11T02:30:10.615Z,8.10
2023-02-11T02:35:25.953Z,8.37
2023-02-11T02:40:34.644Z,9.60
2023-02-11T02:45:37.580Z,10.17
2023-02-11T02:50:41.365Z,8.80
2023-02-11T02:55:52.447Z,10.43
2023-02-11T03:01:05.027Z,10.43
2023-02-11T03:06:14.668Z,8.97
2023-02-11T03:11:19.176Z,8.87
2023-02-11T03:16:24.707Z,8.30
2023-02-11T03:21:29.689Z,8.00
2023-02-11T03:26:34.311Z,8.93
2023-02-11T03:31:41.982Z,8.20
2023-02-11T03:36:49.935Z,9.37
2023-02-11T03:41:53.232Z,7.97
2023-02-11T03:46:56.647Z,7.80
2023-02-11T03:52:01.942Z,7.53
2023-02-11T03:57:04.780Z,7.13
2023-02-11T04:02:07.201Z,8.73
2023-02-11T04:07:12.586Z,8.37
2023-02-11T04:12:14.681Z,7.57
2023-02-11T04:17:16.576Z,7.07
2023-02-11T04:22:20.070Z,8.17
2023-02-11T04:27:22.450Z,7.37
2023-02-11T04:32:24.527Z,7.40
2023-02-11T04:37:27.781Z,7.30
2023-02-11T04:42:29.955Z,7.60
2023-02-11T04:47:32.200Z,7.43
2023-02-11T04:52:35.516Z,7.93
2023-02-11T04:57:38.778Z,8.33
2023-02-11T05:02:42.118Z,8.77
2023-02-11T05:07:45.938Z,7.67
2023-02-11T05:12:50.350Z,7.30
2023-02-11T05:17:52.304Z,7.83
2023-02-11T05:22:56.190Z,9.67
2023-02-11T05:27:58.649Z,9.27
2023-02-11T05:33:00.956Z,9.47
2023-02-11T05:38:04.719Z,7.93
2023-02-11T05:43:06.923Z,9.30
2023-02-11T05:48:09.301Z,7.80
2023-02-11T05:53:13.060Z,8.60
2023-02-11T05:58:15.664Z,10.03
2023-02-11T06:03:18.057Z,11.30
2023-02-11T06:08:21.598Z,12.50
2023-02-11T06:13:24.558Z,10.00
2023-02-11T06:18:26.899Z,7.40
2023-02-11T06:23:30.961Z,8.60
2023-02-11T06:28:33.663Z,8.17
2023-02-11T06:33:36.854Z,7.27
2023-02-11T06:38:40.439Z,8.80
2023-02-11T06:43:43.215Z,8.90
2023-02-11T06:48:45.414Z,12.37
2023-02-11T06:53:49.557Z,10.57
2023-02-11T06:58:56.013Z,11.13
2023-02-11T07:03:58.412Z,9.90
2023-02-11T07:09:02.060Z,9.97
2023-02-11T07:14:05.917Z,9.67
2023-02-11T07:19:07.969Z,8.10
2023-02-11T07:24:11.987Z,8.23
2023-02-11T07:29:13.961Z,8.77
2023-02-11T07:34:15.924Z,10.43
2023-02-11T07:39:22.057Z,9.57
2023-02-11T07:44:25.183Z,8.90
2023-02-11T07:49:27.581Z,8.93
2023-02-11T07:54:30.960Z,7.17
2023-02-11T07:59:33.564Z,9.13
2023-02-11T08:04:35.744Z,7.27
2023-02-11T08:09:39.634Z,6.50
2023-02-11T08:14:41.947Z,7.40
2023-02-11T08:19:44.819Z,7.13
2023-02-11T08:24:50.154Z,6.90
2023-02-11T08:29:54.436Z,6.13
2023-02-11T08:34:56.425Z,5.57
2023-02-11T08:40:00.536Z,6.90
2023-02-11T08:45:02.988Z,6.87
2023-02-11T08:50:05.571Z,6.70
2023-02-11T08:55:09.453Z,6.20
2023-02-11T09:00:12.966Z,6.13
2023-02-11T09:05:15.068Z,6.93
2023-02-11T09:10:19.011Z,6.50
2023-02-11T09:15:21.370Z,7.37
2023-02-11T09:20:23.788Z,7.30
2023-02-11T09:25:27.408Z,7.17
2023-02-11T09:30:29.808Z,6.83
2023-02-11T09:35:32.196Z,7.77
2023-02-11T09:40:35.574Z,7.57
2023-02-11T09:45:37.829Z,7.67
2023-02-11T09:50:43.947Z,7.27
2023-02-11T09:55:49.777Z,6.33
2023-02-11T10:00:59.365Z,6.67
2023-02-11T10:06:15.898Z,7.07
2023-02-11T10:11:31.838Z,6.97
2023-02-11T10:16:49.728Z,7.40
2023-02-11T10:21:59.690Z,8.07
2023-02-11T10:27:08.009Z,8.13
2023-02-11T10:32:25.595Z,6.57
2023-02-11T10:37:27.849Z,6.13
2023-02-11T10:42:32.006Z,5.73
2023-02-11T10:47:39.779Z,5.47
2023-02-11T10:52:42.170Z,4.97
2023-02-11T10:57:55.006Z,4.83
2023-02-11T11:03:00.280Z,4.77
2023-02-11T11:08:06.076Z,4.90
2023-02-11T11:13:28.784Z,4.43
2023-02-11T11:18:31.165Z,4.33
2023-02-11T11:23:34.109Z,4.47
2023-02-11T11:28:42.107Z,5.30
2023-02-11T11:33:45.785Z,4.43
2023-02-11T11:38:53.995Z,4.80
2023-02-11T11:44:03.325Z,4.23
2023-02-11T11:49:21.876Z,5.40
2023-02-11T11:54:26.447Z,5.53
2023-02-11T11:59:30.553Z,5.40
2023-02-11T12:04:54.709Z,5.37
2023-02-11T12:10:22.610Z,5.23
2023-02-11T12:15:36.290Z,6.20
2023-02-11T12:20:51.689Z,5.80
2023-02-11T12:26:02.237Z,6.17
2023-02-11T12:31:19.854Z,5.83
2023-02-11T12:36:38.875Z,7.07
2023-02-11T12:42:14.781Z,6.67
2023-02-11T12:47:30.148Z,6.70
2023-02-11T12:52:50.879Z,7.90
2023-02-11T12:57:55.872Z,7.60
2023-02-11T13:03:05.453Z,7.40
2023-02-11T13:08:14.555Z,9.35
2023-02-11T13:13:24.153Z,8.90
2023-02-11T13:18:49.794Z,9.00
2023-02-11T13:24:00.600Z,9.10
2023-02-11T13:29:21.880Z,8.77
2023-02-11T13:34:59.734Z,8.32
2023-02-11T13:40:04.806Z,9.05
2023-02-11T13:45:20.463Z,10.10
2023-02-11T13:50:26.815Z,10.43
2023-02-11T13:55:30.656Z,10.80
2023-02-11T14:00:52.407Z,10.90
2023-02-11T14:06:33.963Z,10.57
2023-02-11T14:11:49.121Z,10.68
2023-02-11T14:17:34.866Z,11.00
2023-02-11T14:22:49.813Z,11.68
2023-02-11T14:27:57.377Z,11.32
2023-02-11T14:33:40.930Z,11.18
2023-02-11T14:39:02.323Z,11.55
2023-02-11T14:44:07.746Z,10.90
2023-02-11T14:49:20.991Z,10.73
2023-02-11T14:54:29.403Z,10.60
2023-02-11T14:59:32.894Z,10.70
2023-02-11T15:04:36.969Z,12.07
2023-02-11T15:09:44.632Z,11.27
2023-02-11T15:14:50.178Z,11.98
2023-02-11T15:19:56.781Z,12.65
2023-02-11T15:25:11.289Z,11.52
2023-02-11T15:30:27.374Z,11.83
2023-02-11T15:35:32.630Z,11.17
2023-02-11T15:40:37.919Z,11.47
2023-02-11T15:45:45.264Z,11.20
2023-02-11T15:50:55.081Z,12.30
2023-02-11T15:56:13.439Z,10.47
2023-02-11T16:01:26.898Z,11.53
2023-02-11T16:06:38.575Z,11.70
2023-02-11T16:12:00.804Z,12.17
2023-02-11T16:17:10.234Z,12.00
2023-02-11T16:22:17.740Z,11.27
2023-02-11T16:27:25.717Z,11.83
2023-02-11T16:32:33.407Z,11.43
2023-02-11T16:37:39.997Z,12.10
2023-02-11T16:42:43.735Z,13.60
2023-02-11T16:47:49.098Z,14.63
2023-02-11T16:52:53.028Z,13.67
2023-02-11T16:57:56.185Z,14.40
2023-02-11T17:03:01.249Z,13.67
2023-02-11T17:08:07.069Z,13.63
2023-02-11T17:13:09.840Z,17.70
2023-02-11T17:18:15.529Z,18.23
2023-02-11T17:23:19.742Z,16.43
2023-02-11T17:28:26.579Z,16.00
2023-02-11T17:33:34.586Z,15.13
2023-02-11T17:38:41.617Z,14.23
2023-02-11T17:43:48.829Z,14.63
2023-02-11T17:48:54.159Z,14.60
2023-02-11T17:54:01.697Z,13.83
2023-02-11T17:59:05.600Z,13.87
2023-02-11T18:04:17.870Z,17.40
2023-02-11T18:09:25.275Z,17.60
2023-02-11T18:14:29.279Z,17.23
2023-02-11T18:19:36.659Z,16.67
2023-02-11T18:24:40.317Z,15.57
2023-02-11T18:29:46.076Z,14.77
2023-02-11T18:34:50.797Z,14.73
2023-02-11T18:39:55.185Z,13.87
2023-02-11T18:44:58.204Z,15.50
2023-02-11T18:50:05.224Z,15.60
2023-02-11T18:55:13.691Z,14.83
2023-02-11T19:00:18.257Z,15.13
2023-02-11T19:05:23.515Z,16.17
2023-02-11T19:10:28.049Z,15.23
2023-02-11T19:15:30.905Z,17.93
2023-02-11T19:20:36.010Z,18.13
2023-02-11T19:25:40.828Z,19.40
2023-02-11T19:30:45.965Z,19.33
2023-02-11T19:35:52.529Z,24.50
2023-02-11T19:40:58.814Z,26.23
2023-02-11T19:46:04.635Z,26.33
2023-02-11T19:51:13.365Z,26.37
2023-02-11T19:56:19.795Z,31.80
2023-02-11T20:01:26.408Z,28.87
2023-02-11T20:06:33.464Z,25.60
2023-02-11T20:11:38.469Z,21.43
2023-02-11T20:16:48.545Z,21.93
2023-02-11T20:21:57.154Z,19.70
2023-02-11T20:27:02.115Z,21.53
2023-02-11T20:32:05.819Z,20.37
2023-02-11T20:37:22.284Z,19.87
2023-02-11T20:42:26.472Z,18.80
2023-02-11T20:47:29.964Z,20.40
2023-02-11T20:52:38.182Z,15.30
2023-02-11T20:57:41.452Z,14.73
2023-02-11T21:02:47.296Z,12.83
2023-02-11T21:07:52.571Z,12.37
2023-02-11T21:12:56.777Z,11.23
2023-02-11T21:18:00.489Z,12.77
2023-02-11T21:23:06.590Z,14.43
2023-02-11T21:28:10.589Z,14.83
2023-02-11T21:33:14.387Z,15.33
2023-02-11T21:38:19.470Z,15.30
2023-02-11T21:43:25.614Z,17.47
2023-02-11T21:48:29.627Z,12.90
2023-02-11T21:53:34.667Z,12.37
2023-02-11T21:58:38.205Z,12.13
2023-02-11T22:03:41.878Z,10.87
2023-02-11T22:08:48.219Z,11.07
2023-02-11T22:13:54.832Z,10.90
2023-02-11T22:18:59.402Z,11.67
2023-02-11T22:24:03.358Z,12.07
2023-02-11T22:29:06.368Z,13.03
2023-02-11T22:34:09.155Z,13.40
2023-02-11T22:39:14.725Z,13.97
2023-02-11T22:44:18.614Z,17.17
2023-02-11T22:49:22.539Z,17.67
2023-02-11T22:54:26.363Z,14.57
2023-02-11T22:59:28.791Z,16.63
2023-02-11T23:04:31.171Z,16.57
2023-02-11T23:09:34.601Z,15.90
2023-02-11T23:14:36.801Z,16.70
2023-02-11T23:19:39.003Z,17.03
2023-02-11T23:24:42.507Z,16.90
2023-02-11T23:29:44.560Z,20.53
2023-02-11T23:34:46.729Z,17.47
2023-02-11T23:39:50.428Z,18.00
2023-02-11T23:44:52.602Z,16.57
2023-02-11T23:49:54.776Z,16.53
2023-02-11T23:54:58.569Z,16.00
